Time;durP1;ratioP1;P1;durP2;ratioP2;P2;SDS_P1;SDS_P2;PMS_P1;PMS_P2;Temp;Humidity;BMP_temperature;BMP_pressure;BME280_temperature;BME280_humidity;BME280_pressure;Samples;Min_cycle;Max_cycle;Signal;HPM_P1;HPM_P2
2022/01/17 00:00:34;;;;;;;17.92;2.08;;;;;;;-142.75;100.00;79114.38;4994526;28;20022;-70
2022/01/17 00:03:00;;;;;;;9.87;1.63;;;;;;;-142.75;100.00;79102.56;5011933;28;20036;-70
2022/01/17 00:05:27;;;;;;;18.90;1.70;;;;;;;-142.75;100.00;79102.56;5011907;28;20058;-69
2022/01/17 00:07:52;;;;;;;12.60;1.37;;;;;;;-142.75;100.00;79104.53;4994136;28;20024;-68
2022/01/17 00:10:18;;;;;;;23.35;3.72;;;;;;;-142.75;100.00;79096.66;5011929;28;20055;-70
2022/01/17 00:12:45;;;;;;;6.80;1.50;;;;;;;-142.75;100.00;79106.50;5011850;28;20030;-69
2022/01/17 00:15:28;;;;;;;13.77;2.22;;;;;;;-142.75;100.00;79102.56;5011762;28;20021;-69
2022/01/17 00:18:21;;;;;;;6.50;1.07;;;;;;;-142.75;100.00;79106.50;5011457;28;20025;-68
2022/01/17 00:20:45;;;;;;;11.23;1.47;;;;;;;-142.75;100.00;79116.34;5011619;28;20403;-69
2022/01/17 00:23:11;;;;;;;8.47;1.13;;;;;;;-142.75;100.00;79139.97;4994174;28;20049;-70
2022/01/17 00:25:37;;;;;;;7.63;1.58;;;;;;;-142.75;100.00;79153.75;4993836;28;20033;-69
2022/01/17 00:28:02;;;;;;;11.37;1.20;;;;;;;-142.75;100.00;79153.75;5011238;28;20038;-70
2022/01/17 00:30:28;;;;;;;10.15;1.42;;;;;;;-142.75;100.00;79173.47;5011872;28;20044;-69
2022/01/17 00:32:54;;;;;;;10.40;1.43;;;;;;;-142.75;100.00;79183.31;5011547;28;20545;-68
2022/01/17 00:35:19;;;;;;;17.00;2.10;;;;;;;-142.75;100.00;79204.97;4993929;28;20026;-70
2022/01/17 00:37:44;;;;;;;9.48;1.30;;;;;;;-142.75;100.00;79204.97;5011376;28;20272;-70
2022/01/17 00:40:10;;;;;;;10.43;1.20;;;;;;;-142.75;100.00;79216.78;5011287;28;20022;-69
2022/01/17 00:42:36;;;;;;;12.05;1.40;;;;;;;-142.75;100.00;79220.75;5011232;28;20029;-70
2022/01/17 00:45:05;;;;;;;8.00;1.25;;;;;;;-142.75;100.00;79220.75;5011272;28;20112;-69
2022/01/17 00:47:31;;;;;;;10.63;1.40;;;;;;;-142.75;100.00;79218.75;5011553;28;20029;-69
2022/01/17 00:49:56;;;;;;;9.57;1.67;;;;;;;-142.75;100.00;79220.75;5011049;28;20040;-69
2022/01/17 00:52:21;;;;;;;11.80;1.58;;;;;;;-142.75;100.00;79214.81;5011219;28;20052;-70
2022/01/17 00:54:47;;;;;;;11.35;2.03;;;;;;;-142.75;100.00;79224.69;5011102;28;20069;-69
2022/01/17 00:57:12;;;;;;;12.18;2.13;;;;;;;-142.75;100.00;79250.28;4993480;28;20399;-70
2022/01/17 00:59:37;;;;;;;11.05;1.60;;;;;;;-142.75;100.00;79260.13;5010342;28;20084;-69
2022/01/17 01:02:03;;;;;;;17.92;2.55;;;;;;;-142.75;100.00;79268.00;5011112;28;20034;-70
2022/01/17 01:04:28;;;;;;;4.88;1.42;;;;;;;-142.75;100.00;79260.13;5010956;28;20104;-69
2022/01/17 01:06:54;;;;;;;17.00;1.42;;;;;;;-142.75;100.00;79256.19;4993542;28;20021;-69
2022/01/17 01:09:19;;;;;;;9.32;1.42;;;;;;;-142.75;100.00;79271.94;5010735;28;20108;-69
2022/01/17 01:11:44;;;;;;;12.35;1.25;;;;;;;-142.75;100.00;79266.03;5011088;28;20022;-70
2022/01/17 01:14:10;;;;;;;10.18;1.60;;;;;;;-142.75;100.00;79266.03;5010905;28;20422;-70
2022/01/17 01:16:36;;;;;;;8.20;1.25;;;;;;;-142.75;100.00;79283.78;5011046;28;20451;-70
2022/01/17 01:21:47;;;;;;;7.70;1.27;;;;;;;-142.75;100.00;79295.59;5011085;28;20038;-70
2022/01/17 01:29:54;;;;;;;8.63;1.20;;;;;;;-142.75;100.00;79297.56;5010924;28;20049;-70
2022/01/17 01:32:24;;;;;;;8.57;0.93;;;;;;;-142.75;100.00;79301.50;5010847;28;20055;-69
2022/01/17 01:34:52;;;;;;;10.17;1.57;;;;;;;-142.75;100.00;79305.44;5010566;28;20064;-70
2022/01/17 01:37:17;;;;;;;7.57;1.30;;;;;;;-142.75;100.00;79336.94;5010838;28;20087;-70
2022/01/17 01:39:43;;;;;;;13.15;1.55;;;;;;;-142.75;100.00;79346.81;5010476;28;20026;-70
2022/01/17 01:42:16;;;;;;;8.70;1.40;;;;;;;-142.75;100.00;79340.91;5010823;28;20018;-70
2022/01/17 01:44:41;;;;;;;6.77;1.27;;;;;;;-142.75;100.00;79342.88;5010612;28;20289;-70
2022/01/17 01:47:07;;;;;;;11.13;1.50;;;;;;;-142.75;100.00;79366.50;4993097;28;20048;-70
2022/01/17 01:49:32;;;;;;;7.55;1.15;;;;;;;-142.75;100.00;79386.19;4992858;28;20403;-70
2022/01/17 01:51:57;;;;;;;7.60;1.30;;;;;;;-142.75;100.00;79384.22;5010664;28;20099;-70
2022/01/17 01:54:23;;;;;;;8.30;1.47;;;;;;;-142.75;100.00;79394.09;5010539;28;20557;-70
2022/01/17 01:56:50;;;;;;;12.13;1.20;;;;;;;-142.75;100.00;79392.13;5010598;28;20272;-70
2022/01/17 01:59:19;;;;;;;17.77;2.57;;;;;;;-142.75;100.00;79407.88;5010380;28;20403;-70
2022/01/17 02:01:45;;;;;;;12.87;1.80;;;;;;;-142.75;100.00;79411.81;5010542;28;20025;-69
2022/01/17 02:04:11;;;;;;;15.98;1.63;;;;;;;-142.75;100.00;79401.97;4992765;28;20124;-70
2022/01/17 02:06:36;;;;;;;7.47;1.15;;;;;;;-142.75;100.00;79390.13;4993018;28;20112;-70
2022/01/17 02:09:05;;;;;;;13.43;2.15;;;;;;;-142.75;100.00;79398.03;5010327;28;20080;-70
2022/01/17 02:11:32;;;;;;;8.87;0.90;;;;;;;-142.75;100.00;79400.00;5013369;28;20445;-70
2022/01/17 02:13:57;;;;;;;9.27;1.50;;;;;;;-142.75;100.00;79401.97;5014040;28;20037;-70
2022/01/17 02:16:23;;;;;;;13.55;1.95;;;;;;;-142.75;100.00;79386.19;5014075;28;20488;-70
2022/01/17 02:18:49;;;;;;;10.68;1.40;;;;;;;-142.75;100.00;79394.09;5013701;28;20105;-70
2022/01/17 02:23:46;;;;;;;13.73;1.58;;;;;;;-142.75;100.00;79378.31;5013904;28;20038;-70
2022/01/17 02:26:12;;;;;;;16.63;1.50;;;;;;;-142.75;100.00;79380.28;5013783;28;20117;-70
2022/01/17 02:28:38;;;;;;;10.02;1.70;;;;;;;-142.75;100.00;79384.22;5013684;28;20105;-70
2022/01/17 02:31:05;;;;;;;5.95;1.60;;;;;;;-142.75;100.00;79382.25;5013770;28;20045;-70
2022/01/17 02:33:34;;;;;;;11.43;2.13;;;;;;;-142.75;100.00;79390.13;5012652;28;20399;-70
2022/01/17 02:36:00;;;;;;;13.07;1.47;;;;;;;-142.75;100.00;79405.91;4996099;28;20068;-69
2022/01/17 02:38:26;;;;;;;12.73;2.15;;;;;;;-142.75;100.00;79425.59;4995824;28;20471;-70
2022/01/17 02:40:52;;;;;;;12.20;2.25;;;;;;;-142.75;100.00;79423.63;4996030;28;20037;-70
2022/01/17 02:43:20;;;;;;;12.33;1.67;;;;;;;-142.75;100.00;79417.72;4995961;28;20030;-70
2022/01/17 02:48:18;;;;;;;10.47;2.00;;;;;;;-142.75;100.00;79423.63;5013219;28;20408;-70
2022/01/17 02:50:43;;;;;;;13.93;2.20;;;;;;;-142.75;100.00;79433.47;5013415;28;20029;-70
2022/01/17 02:53:09;;;;;;;12.10;1.60;;;;;;;-142.75;100.00;79427.56;5013425;28;20033;-70
2022/01/17 02:55:36;;;;;;;7.28;2.08;;;;;;;-142.75;100.00;79435.44;5012142;28;20438;-70
2022/01/17 02:58:01;;;;;;;14.07;1.80;;;;;;;-142.75;100.00;79437.41;5032790;28;20120;-69
2022/01/17 03:00:27;;;;;;;13.30;2.03;;;;;;;-142.75;100.00;79439.38;5033031;28;20140;-70
2022/01/17 03:02:53;;;;;;;16.30;2.65;;;;;;;-142.75;100.00;79447.28;5015281;28;20022;-70
2022/01/17 03:05:19;;;;;;;15.50;2.17;;;;;;;-142.75;100.00;79439.38;5032850;28;20116;-70
2022/01/17 03:07:46;;;;;;;14.60;3.53;;;;;;;-142.75;100.00;79441.34;5032825;28;20032;-70
2022/01/17 03:10:27;;;;;;;14.67;2.30;;;;;;;-142.75;100.00;79425.59;5032766;28;20033;-70
2022/01/17 03:12:52;;;;;;;14.77;2.00;;;;;;;-142.75;100.00;79437.41;5032821;28;20060;-69
2022/01/17 03:15:20;;;;;;;14.55;1.95;;;;;;;-142.75;100.00;79437.41;5032687;28;20064;-70
2022/01/17 03:17:45;;;;;;;11.80;2.77;;;;;;;-142.75;100.00;79437.41;5032522;28;20025;-70
2022/01/17 03:20:11;;;;;;;11.40;2.47;;;;;;;-142.75;100.00;79439.38;5032522;28;20509;-70
2022/01/17 03:22:39;;;;;;;12.10;2.15;;;;;;;-142.75;100.00;79437.41;5032068;28;20318;-69
2022/01/17 03:25:05;;;;;;;9.27;2.53;;;;;;;-142.75;100.00;79453.19;5026004;28;20108;-69
2022/01/17 03:27:30;;;;;;;14.38;2.40;;;;;;;-142.75;100.00;79451.22;5012760;28;20026;-70
2022/01/17 03:29:55;;;;;;;18.05;3.55;;;;;;;-142.75;100.00;79449.25;5012498;28;20088;-69
2022/01/17 03:32:21;;;;;;;22.83;2.83;;;;;;;-142.75;100.00;79445.28;5012712;28;20523;-69
2022/01/17 03:34:46;;;;;;;16.13;3.45;;;;;;;-142.75;100.00;79441.34;5011247;28;20032;-70
2022/01/17 03:37:11;;;;;;;21.00;3.47;;;;;;;-142.75;100.00;79441.34;5012861;28;20025;-70
2022/01/17 03:39:36;;;;;;;16.23;2.90;;;;;;;-142.75;100.00;79421.66;5012219;28;20479;-70
2022/01/17 03:42:02;;;;;;;15.70;3.03;;;;;;;-142.75;100.00;79417.72;5012492;28;20287;-70
2022/01/17 03:44:27;;;;;;;11.63;2.80;;;;;;;-142.75;100.00;79417.72;5012213;28;20303;-70
2022/01/17 03:46:53;;;;;;;13.53;2.90;;;;;;;-142.75;100.00;79413.78;5012441;28;20502;-69
2022/01/17 03:49:18;;;;;;;17.42;3.55;;;;;;;-142.75;100.00;79415.75;5012124;28;20029;-70
2022/01/17 03:51:43;;;;;;;12.60;3.07;;;;;;;-142.75;100.00;79429.53;5012300;28;20025;-70
2022/01/17 03:54:08;;;;;;;12.13;3.60;;;;;;;-142.75;100.00;79419.69;5012321;28;20100;-70
2022/01/17 03:56:34;;;;;;;16.80;4.22;;;;;;;-142.75;100.00;79400.00;5031506;23;20129;-67
2022/01/17 03:58:59;;;;;;;20.23;3.85;;;;;;;-142.75;100.00;79398.03;5010017;28;20032;-67
2022/01/17 04:01:24;;;;;;;20.38;4.75;;;;;;;-142.75;100.00;79405.91;4994692;28;20092;-68
2022/01/17 04:03:50;;;;;;;20.02;4.35;;;;;;;-142.75;100.00;79401.97;5007724;28;20022;-67
2022/01/17 04:06:15;;;;;;;17.25;4.57;;;;;;;-142.75;100.00;79400.00;5014070;28;20045;-68
2022/01/17 04:08:41;;;;;;;15.68;4.72;;;;;;;-142.75;100.00;79390.13;5031566;28;20025;-67
2022/01/17 04:11:07;;;;;;;17.83;4.85;;;;;;;-142.75;100.00;79394.09;5014112;28;20709;-67
2022/01/17 04:13:33;;;;;;;17.67;4.15;;;;;;;-142.75;100.00;79388.16;5013912;28;20151;-67
2022/01/17 04:15:59;;;;;;;13.47;3.37;;;;;;;-142.75;100.00;79409.84;5013947;28;20033;-68
2022/01/17 04:18:24;;;;;;;13.60;3.83;;;;;;;-142.75;100.00;79403.94;5031626;28;20029;-67
2022/01/17 04:20:50;;;;;;;13.75;4.30;;;;;;;-142.75;100.00;79407.88;5031616;28;20029;-67
2022/01/17 04:23:17;;;;;;;14.18;3.90;;;;;;;-142.75;100.00;79417.72;5031400;28;20052;-67
2022/01/17 04:25:43;;;;;;;19.23;4.43;;;;;;;-142.75;100.00;79425.59;5031343;28;20017;-68
2022/01/17 04:28:11;;;;;;;16.90;4.23;;;;;;;-142.75;100.00;79433.47;5030915;28;20032;-68
2022/01/17 04:30:37;;;;;;;12.40;3.83;;;;;;;-142.75;100.00;79443.31;5031388;28;20033;-67
2022/01/17 04:33:03;;;;;;;;;;;;;;;-142.75;100.00;79433.47;5031437;28;20078;-67
2022/01/17 04:35:30;;;;;;;16.23;4.57;;;;;;;-142.75;100.00;79431.50;5030630;28;20357;-67
2022/01/17 04:38:05;;;;;;;13.27;4.60;;;;;;;-142.75;100.00;79445.28;5013245;28;20024;-68
2022/01/17 04:40:35;;;;;;;17.63;4.83;;;;;;;-142.75;100.00;79443.31;5031129;28;20029;-66
2022/01/17 04:43:13;;;;;;;17.27;5.00;;;;;;;-142.75;100.00;79429.53;5031047;28;20029;-67
2022/01/17 04:45:38;;;;;;;14.17;5.13;;;;;;;-142.75;100.00;79445.28;5031012;28;20608;-67
2022/01/17 04:48:04;;;;;;;11.05;4.78;;;;;;;-142.75;100.00;79449.25;5030862;28;20045;-67
2022/01/17 04:50:29;;;;;;;13.93;4.85;;;;;;;-142.75;100.00;79441.34;5031028;28;20029;-67
2022/01/17 04:52:56;;;;;;;16.55;5.38;;;;;;;-142.75;100.00;79443.31;5031087;28;20032;-67
2022/01/17 04:55:23;;;;;;;12.60;5.17;;;;;;;-142.75;100.00;79437.41;5030686;28;20467;-67
2022/01/17 04:57:48;;;;;;;19.77;6.20;;;;;;;-142.75;100.00;79445.28;5030906;28;20033;-65
2022/01/17 05:00:17;;;;;;;16.42;6.00;;;;;;;-142.75;100.00;79437.41;5030778;28;20025;-67
2022/01/17 05:02:43;;;;;;;13.60;5.23;;;;;;;-142.75;100.00;79445.28;5030789;28;20036;-67
2022/01/17 05:05:10;;;;;;;16.45;5.75;;;;;;;-142.75;100.00;79449.25;5030772;28;20394;-67
2022/01/17 05:07:36;;;;;;;18.30;6.17;;;;;;;-142.75;100.00;79445.28;5030702;28;20025;-68
2022/01/17 05:10:04;;;;;;;16.70;6.40;;;;;;;-142.75;100.00;79449.25;5030573;28;20084;-67
2022/01/17 05:12:29;;;;;;;26.03;6.83;;;;;;;-142.75;100.00;79453.19;5030779;28;20430;-67
2022/01/17 05:14:55;;;;;;;24.30;6.43;;;;;;;-142.75;100.00;79457.13;5012950;28;20034;-67
2022/01/17 05:19:49;;;;;;;22.58;7.15;;;;;;;-142.75;100.00;79441.34;5030010;28;20045;-67
2022/01/17 05:22:19;;;;;;;21.27;7.50;;;;;;;-142.75;100.00;79445.28;5030657;28;20033;-67
2022/01/17 05:24:44;;;;;;;21.23;7.30;;;;;;;-142.75;100.00;79445.28;5030424;28;20511;-67
2022/01/17 05:27:10;;;;;;;24.63;8.77;;;;;;;-142.75;100.00;79447.28;5030739;28;20030;-67
2022/01/17 05:29:35;;;;;;;21.23;7.25;;;;;;;-142.75;100.00;79439.38;5030198;28;20475;-67
2022/01/17 05:32:01;;;;;;;19.65;7.88;;;;;;;-142.75;100.00;79433.47;5030580;28;20033;-67
2022/01/17 05:34:26;;;;;;;21.58;8.15;;;;;;;-142.75;100.00;79437.41;5030417;28;20029;-67
2022/01/17 05:36:52;;;;;;;25.77;8.20;;;;;;;-142.75;100.00;79437.41;5012882;28;20060;-66
2022/01/17 05:39:17;;;;;;;15.35;8.15;;;;;;;-142.75;100.00;79441.34;5030342;28;20048;-67
2022/01/17 05:41:43;;;;;;;27.80;9.30;;;;;;;-142.75;100.00;79437.41;5012752;28;20037;-66
2022/01/17 05:44:08;;;;;;;25.92;9.40;;;;;;;-142.75;100.00;79425.59;5030385;28;20075;-67
2022/01/17 05:46:33;;;;;;;26.40;10.25;;;;;;;-142.75;100.00;79409.84;5033457;28;20025;-67
2022/01/17 05:48:59;;;;;;;23.38;10.55;;;;;;;-142.75;100.00;79401.97;5034050;28;20034;-67
2022/01/17 05:51:24;;;;;;;27.80;12.07;;;;;;;-142.75;100.00;79401.97;5034409;28;20395;-67
2022/01/17 05:53:49;;;;;;;30.95;12.85;;;;;;;-142.75;100.00;79392.13;5034325;28;20053;-67
2022/01/17 05:56:15;;;;;;;26.20;12.98;;;;;;;-142.75;100.00;79378.31;5016355;28;20032;-67
2022/01/17 05:58:40;;;;;;;27.67;12.02;;;;;;;-142.75;100.00;79380.28;5016175;28;20025;-67
2022/01/17 06:01:06;;;;;;;30.70;13.27;;;;;;;-142.75;100.00;79388.16;5034234;28;20033;-67
2022/01/17 06:03:32;;;;;;;35.03;13.95;;;;;;;-142.75;100.00;79390.13;5034165;28;20475;-67
2022/01/17 06:05:58;;;;;;;24.77;13.98;;;;;;;-142.75;100.00;79398.03;5016164;28;20098;-67
2022/01/17 06:08:23;;;;;;;29.83;13.65;;;;;;;-142.75;100.00;79398.03;5016121;28;20033;-67
2022/01/17 06:10:48;;;;;;;31.58;16.02;;;;;;;-142.75;100.00;79394.09;5034081;28;20091;-67
2022/01/17 06:13:14;;;;;;;32.57;15.77;;;;;;;-142.75;100.00;79398.03;5024380;28;20033;-67
2022/01/17 06:15:39;;;;;;;34.88;15.80;;;;;;;-142.75;100.00;79400.00;5014196;28;20284;-67
2022/01/17 06:18:04;;;;;;;36.13;16.92;;;;;;;-142.75;100.00;79392.13;5013872;28;20040;-67
2022/01/17 06:20:30;;;;;;;29.73;15.73;;;;;;;-142.75;100.00;79390.13;5014048;28;20076;-67
2022/01/17 06:22:55;;;;;;;30.83;16.30;;;;;;;-142.75;100.00;79394.09;5014011;28;20026;-67
2022/01/17 06:25:20;;;;;;;35.58;18.08;;;;;;;-142.75;100.00;79400.00;5013853;28;20036;-67
2022/01/17 06:27:46;;;;;;;30.63;15.75;;;;;;;-142.75;100.00;79413.78;4996340;28;20537;-65
2022/01/17 06:30:15;;;;;;;37.92;16.90;;;;;;;-142.75;100.00;79409.84;5013795;28;20026;-67
2022/01/17 06:32:41;;;;;;;39.17;17.23;;;;;;;-142.75;100.00;79417.72;5013705;28;20024;-66
2022/01/17 06:35:07;;;;;;;34.67;15.82;;;;;;;-142.75;100.00;79423.63;4996159;28;20471;-67
2022/01/17 06:37:32;;;;;;;39.95;16.80;;;;;;;-142.75;100.00;79409.84;5013775;28;20096;-66
2022/01/17 06:39:58;;;;;;;38.90;15.23;;;;;;;-142.75;100.00;79423.63;5013350;28;20030;-67
2022/01/17 06:42:23;;;;;;;30.85;14.75;;;;;;;-142.75;100.00;79421.66;5013769;28;20022;-67
2022/01/17 06:44:49;;;;;;;35.75;13.98;;;;;;;-142.75;100.00;79409.84;5013432;28;20117;-67
2022/01/17 06:47:14;;;;;;;;;;;;;;;-142.75;100.00;79409.84;5014023;28;20097;-66
2022/01/17 06:49:40;;;;;;;29.93;13.17;;;;;;;-142.75;100.00;79419.69;5013229;28;20422;-66
2022/01/17 06:52:05;;;;;;;29.27;12.48;;;;;;;-142.75;100.00;79417.72;4995935;28;20029;-67
2022/01/17 06:54:31;;;;;;;30.50;13.40;;;;;;;-142.75;100.00;79433.47;4995758;28;20022;-67
2022/01/17 06:56:56;;;;;;;34.83;12.10;;;;;;;-142.75;100.00;79441.34;5012188;28;20022;-67
2022/01/17 06:59:21;;;;;;;31.08;12.38;;;;;;;-142.75;100.00;79457.13;5013096;28;20022;-67
2022/01/17 07:01:46;;;;;;;30.70;12.40;;;;;;;-142.75;100.00;79461.06;4995721;28;20132;-68
2022/01/17 07:04:12;;;;;;;30.45;11.80;;;;;;;-142.75;100.00;79465.00;5013157;28;20545;-67
2022/01/17 07:06:38;;;;;;;27.45;12.32;;;;;;;-142.75;100.00;79482.72;5013170;28;20037;-66
2022/01/17 07:09:05;;;;;;;30.23;10.77;;;;;;;-142.75;100.00;79466.97;5012889;28;20476;-66
2022/01/17 07:11:38;;;;;;;27.67;10.83;;;;;;;-142.75;100.00;79463.03;4996070;28;20034;-66
2022/01/17 07:14:04;;;;;;;27.57;10.13;;;;;;;-142.75;100.00;79447.28;5014690;28;20025;-66
2022/01/17 07:16:29;;;;;;;25.17;9.57;;;;;;;-142.75;100.00;79455.16;5032662;28;20109;-66
2022/01/17 07:18:54;;;;;;;28.33;9.35;;;;;;;-142.75;100.00;79461.06;5032448;28;20108;-67
2022/01/17 07:21:20;;;;;;;24.65;8.88;;;;;;;-142.75;100.00;79461.06;5032709;28;20021;-66
2022/01/17 07:23:45;;;;;;;28.00;8.43;;;;;;;-142.75;100.00;79453.19;5015050;28;20029;-67
2022/01/17 07:26:10;;;;;;;25.57;8.30;;;;;;;-142.75;100.00;79453.19;5032361;28;20288;-66
2022/01/17 07:28:35;;;;;;;29.10;7.53;;;;;;;-142.75;100.00;79451.22;5031903;28;20027;-67
2022/01/17 07:31:01;;;;;;;22.77;8.20;;;;;;;-142.75;100.00;79472.88;5014467;28;20075;-67
2022/01/17 07:33:28;;;;;;;23.17;7.30;;;;;;;-142.75;100.00;79476.81;5032387;28;20637;-66
2022/01/17 07:35:53;;;;;;;17.20;6.37;;;;;;;-142.75;100.00;79480.75;5032187;28;20026;-66
2022/01/17 07:38:19;;;;;;;22.80;6.85;;;;;;;-142.75;100.00;79500.47;5033119;28;20032;-67
2022/01/17 07:40:44;;;;;;;27.88;6.72;;;;;;;-142.75;100.00;79492.56;5013838;28;20032;-66
2022/01/17 07:43:11;;;;;;;21.10;6.35;;;;;;;-142.75;100.00;79488.63;5011636;28;20056;-66
2022/01/17 07:45:54;;;;;;;21.80;6.20;;;;;;;-142.75;100.00;79488.63;4993635;28;20021;-66
2022/01/17 07:48:45;;;;;;;21.77;5.40;;;;;;;-142.75;100.00;79488.63;5010907;28;20476;-67
2022/01/17 07:51:08;;;;;;;22.83;5.73;;;;;;;-142.75;100.00;79486.66;5010943;28;20522;-67
2022/01/17 07:53:33;;;;;;;22.60;6.45;;;;;;;-142.75;100.00;79488.63;4993937;28;20021;-67
2022/01/17 07:55:58;;;;;;;19.02;5.85;;;;;;;-142.75;100.00;79476.81;5010814;28;20159;-67
2022/01/17 07:58:23;;;;;;;18.50;5.00;;;;;;;-142.75;100.00;79478.78;5010615;28;20100;-67
2022/01/17 08:00:49;;;;;;;20.52;5.30;;;;;;;-142.75;100.00;79472.88;5011486;28;20431;-67
2022/01/17 08:03:14;;;;;;;20.73;4.70;;;;;;;-142.75;100.00;79468.94;5011249;28;20101;-67
2022/01/17 08:05:39;;;;;;;19.37;4.10;;;;;;;-142.75;100.00;79474.84;4993477;28;20288;-66
2022/01/17 08:08:04;;;;;;;16.87;4.80;;;;;;;-142.75;100.00;79472.88;5010378;28;20280;-67
2022/01/17 08:10:30;;;;;;;18.47;4.47;;;;;;;-142.75;100.00;79480.75;5010456;28;20033;-67
2022/01/17 08:12:55;;;;;;;22.45;4.80;;;;;;;-142.75;100.00;79465.00;5010415;28;20277;-66
2022/01/17 08:15:21;;;;;;;18.23;4.15;;;;;;;-142.75;100.00;79463.03;5010647;28;20022;-67
2022/01/17 08:17:47;;;;;;;20.92;5.15;;;;;;;-142.75;100.00;79457.13;5010598;28;20030;-67
2022/01/17 08:20:14;;;;;;;17.42;3.53;;;;;;;-142.75;100.00;79457.13;5010527;28;20030;-66
2022/01/17 08:22:41;;;;;;;18.40;3.80;;;;;;;-142.75;100.00;79466.97;4992945;28;20021;-66
2022/01/17 08:25:07;;;;;;;24.93;4.60;;;;;;;-142.75;100.00;79466.97;4992378;28;20022;-67
2022/01/17 08:27:32;;;;;;;24.17;3.85;;;;;;;-142.75;100.00;79461.06;5010418;28;20036;-66
2022/01/17 08:29:57;;;;;;;18.60;3.47;;;;;;;-142.75;100.00;79468.94;4992546;28;20137;-67
2022/01/17 08:32:23;;;;;;;18.23;4.18;;;;;;;-142.75;100.00;79463.03;5010210;28;20073;-66
2022/01/17 08:34:48;;;;;;;26.73;4.85;;;;;;;-142.75;100.00;79465.00;5010570;28;20025;-66
2022/01/17 08:37:14;;;;;;;21.60;4.13;;;;;;;-142.75;100.00;79457.13;5010852;28;20034;-67
2022/01/17 08:39:39;;;;;;;26.10;4.22;;;;;;;-142.75;100.00;79453.19;5009750;28;20522;-66
2022/01/17 08:42:10;;;;;;;24.23;4.17;;;;;;;-142.75;100.00;79445.28;5010326;28;20029;-67
2022/01/17 08:44:38;;;;;;;25.17;4.80;;;;;;;-142.75;100.00;79421.66;4991978;28;20112;-66
2022/01/17 08:47:05;;;;;;;25.13;4.37;;;;;;;-142.75;100.00;79413.78;5010577;28;20037;-67
2022/01/17 08:49:30;;;;;;;19.83;3.77;;;;;;;-142.75;100.00;79407.88;5010449;28;20029;-67
2022/01/17 08:51:56;;;;;;;16.75;3.22;;;;;;;-142.75;100.00;79415.75;5010114;28;20040;-67
2022/01/17 08:54:22;;;;;;;26.33;4.33;;;;;;;-142.75;100.00;79405.91;4993023;28;20061;-67
2022/01/17 08:56:47;;;;;;;23.92;4.03;;;;;;;-142.75;100.00;79409.84;5008887;28;20030;-67
2022/01/17 08:59:13;;;;;;;18.55;3.53;;;;;;;-142.75;100.00;79407.88;4992092;28;20032;-66
2022/01/17 09:01:38;;;;;;;21.08;3.85;;;;;;;-142.75;100.00;79413.78;5010444;28;20061;-66
2022/01/17 09:04:03;;;;;;;18.35;3.85;;;;;;;-142.75;100.00;79413.78;5010694;28;20376;-66
2022/01/17 09:06:29;;;;;;;28.35;4.70;;;;;;;-142.75;100.00;79415.75;5010268;28;20573;-66
2022/01/17 09:08:54;;;;;;;23.48;4.20;;;;;;;-142.75;100.00;79405.91;4992068;28;20040;-67
2022/01/17 09:11:20;;;;;;;20.25;3.15;;;;;;;-142.75;100.00;79401.97;5010266;28;20088;-67
2022/01/17 09:13:47;;;;;;;30.20;4.72;;;;;;;-142.75;100.00;79398.03;5010467;28;20458;-68
2022/01/17 09:16:13;;;;;;;28.07;5.27;;;;;;;-142.75;100.00;79411.81;5010322;28;20037;-68
2022/01/17 09:18:38;;;;;;;23.33;4.20;;;;;;;-142.75;100.00;79409.84;5011261;28;20029;-67
2022/01/17 09:21:06;;;;;;;23.63;3.85;;;;;;;-142.75;100.00;79407.88;5011173;28;20080;-67
2022/01/17 09:23:31;;;;;;;21.57;4.10;;;;;;;-142.75;100.00;79407.88;4994073;28;20033;-67
2022/01/17 09:25:57;;;;;;;18.73;3.33;;;;;;;-142.75;100.00;79390.13;4992150;28;20034;-66
2022/01/17 09:28:23;;;;;;;23.35;3.95;;;;;;;-142.75;100.00;79388.16;5009340;28;20116;-66
2022/01/17 09:30:50;;;;;;;18.90;3.53;;;;;;;-142.75;100.00;79382.25;5008809;28;20053;-67
2022/01/17 09:33:15;;;;;;;31.10;4.03;;;;;;;-142.75;100.00;79380.28;5009985;28;20088;-67
2022/01/17 09:35:40;;;;;;;22.93;3.53;;;;;;;-142.75;100.00;79372.41;5009561;28;20021;-67
2022/01/17 09:38:05;;;;;;;23.43;3.73;;;;;;;-142.75;100.00;79348.78;5009037;28;20277;-67
2022/01/17 09:40:33;;;;;;;18.02;3.45;;;;;;;-142.75;100.00;79342.88;5009543;28;20030;-67
2022/01/17 09:42:59;;;;;;;20.13;2.80;;;;;;;-142.75;100.00;79335.00;4992008;28;20030;-67
2022/01/17 09:45:25;;;;;;;17.65;3.33;;;;;;;-142.75;100.00;79335.00;5009322;28;20372;-66
2022/01/17 09:47:50;;;;;;;;;;;;;;;-142.75;100.00;79323.16;5009600;28;20060;-67
2022/01/17 09:50:31;;;;;;;34.97;4.43;;;;;;;-142.75;100.00;79336.94;5009566;28;19982;-67
2022/01/17 09:52:57;;;;;;;21.77;3.63;;;;;;;-142.75;100.00;79325.13;5009720;28;20057;-67
2022/01/17 09:55:26;;;;;;;19.37;3.50;;;;;;;-142.75;100.00;79313.31;5009561;28;20018;-66
2022/01/17 09:57:54;;;;;;;24.20;3.93;;;;;;;-142.75;100.00;79317.25;5008854;28;20092;-66
2022/01/17 10:00:25;;;;;;;22.35;3.33;;;;;;;-142.75;100.00;79307.41;4992043;28;20022;-67
2022/01/17 10:02:56;;;;;;;29.27;3.70;;;;;;;-142.75;100.00;79309.38;5009781;28;20032;-66
2022/01/17 10:05:22;;;;;;;22.25;3.38;;;;;;;-142.75;100.00;79307.41;5009598;28;20022;-67
2022/01/17 10:08:05;;;;;;;18.20;3.10;;;;;;;-142.75;100.00;79291.66;4991874;28;20033;-65
2022/01/17 10:10:39;;;;;;;19.40;3.07;;;;;;;-142.75;100.00;79291.66;4991779;28;20098;-67
2022/01/17 10:13:14;;;;;;;27.57;3.93;;;;;;;-142.75;100.00;79291.66;5009520;28;20030;-66
2022/01/17 10:16:00;;;;;;;20.10;2.87;;;;;;;-142.75;100.00;79293.63;5009498;28;20081;-67
2022/01/17 10:18:53;;;;;;;20.87;3.30;;;;;;;-142.75;100.00;79271.94;4991604;28;20121;-67
2022/01/17 10:21:41;;;;;;;20.87;2.80;;;;;;;-142.75;100.00;79256.19;5008691;28;20108;-67
2022/01/17 10:24:56;;;;;;;19.37;2.93;;;;;;;-142.75;100.00;79268.00;5008791;28;20025;-67
2022/01/17 10:35:14;;;;;;;;;;;;;;;-142.75;100.00;79258.16;5013183;28;20033;-67
2022/01/17 10:37:41;;;;;;;18.83;2.63;;;;;;;-142.75;100.00;79246.34;4995438;28;20546;-67
2022/01/17 10:40:08;;;;;;;24.63;3.38;;;;;;;-142.75;100.00;79258.16;5012319;28;20029;-67
2022/01/17 10:42:45;;;;;;;19.95;2.63;;;;;;;-142.75;100.00;79248.31;5012826;28;20080;-67
2022/01/17 10:45:14;;;;;;;22.48;2.90;;;;;;;-142.75;100.00;79232.56;4994705;28;20030;-67
2022/01/17 10:47:43;;;;;;;18.90;3.08;;;;;;;-142.75;100.00;79250.28;5012443;28;20048;-66
2022/01/17 10:50:18;;;;;;;21.30;2.85;;;;;;;-142.75;100.00;79228.63;5012522;28;20021;-67
2022/01/17 10:52:53;;;;;;;23.67;3.40;;;;;;;-142.75;100.00;79236.50;5012571;28;20056;-67
2022/01/17 10:55:20;;;;;;;16.80;3.00;;;;;;;-142.75;100.00;79238.47;4994262;28;20028;-67
2022/01/17 10:57:50;;;;;;;21.48;2.88;;;;;;;-142.75;100.00;79242.41;5011891;28;20018;-66
2022/01/17 11:00:20;;;;;;;21.38;3.25;;;;;;;-142.75;100.00;79256.19;4994735;28;20100;-67
2022/01/17 11:02:52;;;;;;;23.33;2.78;;;;;;;-142.75;100.00;79246.34;5012486;28;20022;-67
2022/01/17 11:05:19;;;;;;;28.58;3.22;;;;;;;-142.75;100.00;79262.09;5012196;28;20104;-67
2022/01/17 11:07:46;;;;;;;17.75;3.42;;;;;;;-142.75;100.00;79250.28;5012289;28;20018;-67
2022/01/17 11:10:18;;;;;;;20.33;2.95;;;;;;;-142.75;100.00;79264.06;5011417;28;20034;-67
2022/01/17 11:12:43;;;;;;;31.55;3.20;;;;;;;-142.75;100.00;79266.03;5011504;28;20384;-67
2022/01/17 11:15:11;;;;;;;17.40;2.75;;;;;;;-142.75;100.00;79271.94;5011342;28;20052;-66
2022/01/17 11:17:39;;;;;;;19.90;2.70;;;;;;;-142.75;100.00;79268.00;5011320;28;20026;-67
2022/01/17 11:20:09;;;;;;;14.05;2.72;;;;;;;-142.75;100.00;79262.09;4993756;28;20119;-66
2022/01/17 11:22:39;;;;;;;15.82;2.17;;;;;;;-142.75;100.00;79260.13;5011455;28;20030;-66
2022/01/17 11:25:07;;;;;;;16.55;2.85;;;;;;;-142.75;100.00;79260.13;5010829;28;20022;-66